Viterbo, Italia

06:29 PM CEST del 02 Ottobre 2014 (GMT +0200)
viterbo | Change Station
CLOSE
Current Station
Stazione meteo personale
Location: Viterbo, LAZIO
Altitudine: 1170 ft
Stazioni meteo nelle vicinanze
Avvisi attivi: Thunderstorms

Alt. 1170 ft 42.42 °N, 12.11 °E | Updated 3 minutes ago

Scattered Clouds
Nubi sparse
66.9 °F
Sembra 66.9 °F
N
11.0
Vento Variabile Vento da NNE

Oggi
Massima -- | Minima -- °F
--% Possibilità di precip.
Ieri
Massima -- | Minima -- °F
Precip. -- in
7:09 AM 6:51 PM
Primo quarto, 60% visible
Pressione 30.12 in
Visibilità 6.2 miglia
Nuvole Nubi sparse 3000 ft
Punto di rugiada 57 °F
Umidità 70%
Piovosità 0.00 in
Spessore del manto nevoso Non disponibile.
Raggi UV 0 fuori da 12
Polline Non disponibile.
Qualità dell'aria Non disponibile.
Flu Activity Non disponibile.
METAR LIRV 021555Z 03012KT 9999 SCT030 21/14 Q1020 RMK SCT MON E SE LIB NC VIS MIN 9999 BLU

More Conditions Fewer Conditions

Pressione 30.12 in
Visibilità 6.2 miglia
Nuvole Nubi sparse 3000 ft
Punto di rugiada 57 °F
Umidità 70%
Piovosità 0.00 in
Spessore del manto nevoso Non disponibile.
Raggi UV 0 fuori da 12
Polline Non disponibile.
Qualità dell'aria Non disponibile.
Flu Activity Non disponibile.
METAR LIRV 021555Z 03012KT 9999 SCT030 21/14 Q1020 RMK SCT MON E SE LIB NC VIS MIN 9999 BLU

More Conditions Fewer Conditions

10-Day Weather Forecast

Almanac

Astronomia

Oct. 02, 2014 Alba Tramonto
Ora attuale 07:09 CEST 18:51 CEST
Crepuscolo civile 06:41 CEST 19:19 CEST
Crepuscolo nautico 06:08 CEST 19:52 CEST
Crepuscolo astronomico 05:35 CEST 20:25 CEST
Luna 14:50 CEST 00:02 CEST
Estensione della luce visibile 12h 38m
Lunghezza del giorno
11h 42m
Tomorrow will be 2m 50s shorter.
Primo quarto, 60% of the Moon is Illuminated
Oggi
Primo quarto
Ott 8
Luna piena
Ott 15
Ultimo quarto
Ott 23
Nuovo
Ott 30
Primo quarto

Gli estremi di oggi

Massime Regione Minime Regione

Community

WunderPhotos

Upload Photos

1,758,290 foto caricate!

WunderBlogs® & News

Nearby

Qualità dell'aria

Not available.

Profondità neve

Not available.

Attività sismica

Città  Distanza Mag. Data & Ora
Non sono state riportate attività sismiche nelle vicinanze.
Minimo Magnitudo Mostrato è 2.5.

Temperature delle acque costiere

Località Temperatura
Nessun dato dalle stazioni

Stazioni meteo nelle vicinanze